L W Nelson — WDC8149 — position and weather

sailwx.info

Track history (hours):
 
Tides and Currents Weather Stations Pressure Air Temp Water Temp Dewpoint Dewpoint Depression Visibility Wind Speed Wind Dir Waves Ship Positions

L W Nelson

Owner: MARIGOLD TUGS INC, MOBILE, AL. More information available from US FCC via Universal Licensing System and Coast Guard Vessel Documentation Center.

Last reported at 2017-Nov-16 02:58 UTC. Time now 2017-Dec-12 19:43 UTC.
Position N 29°34' W 090°30'.
Warning: this ship's position is 26 days out of date.

Length 17 m; draft 2.8 m.

Type: Ship (hazmat cat B). MMSI: 367082430.

Date/timePositionNaut miles runAvg speedWind from/ knotsBaromVisibWave heightAir tempDewpointWater temp
2017-Nov-16 02:58N 29°34' W 090°30'2 4.4
2017-Nov-16 02:30N 29°34' W 090°32'3 4.9
2017-Nov-16 01:59N 29°35' W 090°35'2 4.7
2017-Nov-16 01:31N 29°35' W 090°38'2 4.6
2017-Nov-16 01:00N 29°36' W 090°40'2 4.4
2017-Nov-16 00:31N 29°37' W 090°42'2 4.3
2017-Nov-16 00:01N 29°35' W 090°43'2 4.2
2017-Nov-15 23:31N 29°34' W 090°45'2 4.5
2017-Nov-15 23:00N 29°32' W 090°47'3 5.2
2017-Nov-15 22:30N 29°32' W 090°50'59 4.1
2017-Nov-15 07:53N 29°51' W 091°55'2 4.8
2017-Nov-15 07:27N 29°50' W 091°57'2 5.2
2017-Nov-15 07:00N 29°50' W 091°60'3 5.1
2017-Nov-15 06:30N 29°49' W 092°03'3 5.3
2017-Nov-15 06:00N 29°48' W 092°05'3 5.2
2017-Nov-15 05:30N 29°47' W 092°08'2 4.9
2017-Nov-15 05:00N 29°47' W 092°11'1 2.5
2017-Nov-15 04:30N 29°47' W 092°12'1 1.1
2017-Nov-15 04:00N 29°47' W 092°13'1 1.3
2017-Nov-15 03:30N 29°48' W 092°14'0 0.4
2017-Nov-15 03:00N 29°48' W 092°14'1 2.6
2017-Nov-15 02:30N 29°48' W 092°15'2 4.7
2017-Nov-15 02:00N 29°49' W 092°18'2 3.8
2017-Nov-15 01:30N 29°50' W 092°19'3 4.3
2017-Nov-15 00:52N 29°52' W 092°22'0 0.6
2017-Nov-15 00:30N 29°52' W 092°22'2 3.3
2017-Nov-14 23:59N 29°53' W 092°24'3 5.0
2017-Nov-14 23:26N 29°54' W 092°27'33 4.7
2017-Nov-14 16:28N 29°56' W 093°05'2 4.7
2017-Nov-14 16:00N 29°56' W 093°07'2 4.6
2017-Nov-14 15:30N 29°56' W 093°10'0 0.9
2017-Nov-14 15:00N 29°57' W 093°10'2 3.9
2017-Nov-14 14:30N 29°58' W 093°12'2 4.6
2017-Nov-14 13:59N 29°60' W 093°13'2 4.5
2017-Nov-14 13:31N 30°02' W 093°15'2 4.3
2017-Nov-14 13:00N 30°04' W 093°16'2 4.4
2017-Nov-14 12:30N 30°05' W 093°18'91 2.6
2017-Nov-13 02:01N 29°39' W 094°58'3 5.2
2017-Nov-13 01:30N 29°42' W 094°59'3 4.6
2017-Nov-13 00:50N 29°44' W 095°02'2 4.8
2017-Nov-13 00:28N 29°45' W 095°04'3 2.0
2017-Nov-12 23:09N 29°46' W 095°06'0 0.4
2017-Nov-12 22:49N 29°46' W 095°06'0 0.0
2017-Nov-12 22:25N 29°46' W 095°06'0 0.1
2017-Nov-12 18:52N 29°46' W 095°06'1 3.3
2017-Nov-12 18:26N 29°46' W 095°04'2 4.0
2017-Nov-12 18:00N 29°44' W 095°03'2 3.4
2017-Nov-12 17:25N 29°43' W 095°01'1 3.4
2017-Nov-12 17:00N 29°42' W 094°60'2 3.7
2017-Nov-12 16:31N 29°41' W 094°59'2 4.2
2017-Nov-12 16:01N 29°39' W 094°58'2 4.0
2017-Nov-12 15:31N 29°37' W 094°57'2 3.9
2017-Nov-12 15:00N 29°35' W 094°56'2 3.6
2017-Nov-12 14:30N 29°34' W 094°55'2 3.7
2017-Nov-12 14:01N 29°32' W 094°54'2 3.6
2017-Nov-12 13:29N 29°30' W 094°52'21 2.4
2017-Nov-12 04:52N 29°33' W 094°28'112 2.8
2017-Nov-10 13:42N 29°51' W 092°22'1 3.2
2017-Nov-10 13:30N 29°51' W 092°21'1 2.7
2017-Nov-10 13:00N 29°50' W 092°20'1 2.5
2017-Nov-10 12:30N 29°50' W 092°18'2 3.4
2017-Nov-10 12:00N 29°49' W 092°17'2 3.4
2017-Nov-10 11:30N 29°48' W 092°15'2 3.0
2017-Nov-10 11:00N 29°48' W 092°14'1 2.2
2017-Nov-10 10:30N 29°47' W 092°12'0 0.6
2017-Nov-10 10:00N 29°47' W 092°12'1 1.1
2017-Nov-10 09:30N 29°47' W 092°11'0 0.0
2017-Nov-10 09:00N 29°47' W 092°11'0 0.0
2017-Nov-10 08:30N 29°47' W 092°11'0 0.1
2017-Nov-10 08:00N 29°47' W 092°11'0 0.2
2017-Nov-10 07:30N 29°47' W 092°11'0 0.3
2017-Nov-10 07:00N 29°47' W 092°11'0 0.0
2017-Nov-10 06:30N 29°47' W 092°11'0 0.0
2017-Nov-10 06:00N 29°47' W 092°11'0 0.0
2017-Nov-10 05:30N 29°47' W 092°11'0 0.2
2017-Nov-10 05:00N 29°47' W 092°11'0 0.0
2017-Nov-10 04:30N 29°47' W 092°11'1 1.4
2017-Nov-10 04:00N 29°47' W 092°10'1 2.9
2017-Nov-10 03:30N 29°47' W 092°09'1 2.7
2017-Nov-10 03:00N 29°47' W 092°07'1 2.5
2017-Nov-10 02:30N 29°48' W 092°06'1 2.5
2017-Nov-10 02:00N 29°48' W 092°05'1 2.5
2017-Nov-10 01:30N 29°49' W 092°03'1 2.3
2017-Nov-10 01:00N 29°49' W 092°02'1 2.6
2017-Nov-10 00:30N 29°50' W 092°01'1 2.7
2017-Nov-10 00:00N 29°50' W 091°59'1 2.6
2017-Nov-09 23:30N 29°50' W 091°58'61 3.1
2017-Nov-09 03:50N 29°32' W 090°51'1 3.4
2017-Nov-09 03:31N 29°32' W 090°49'2 3.3
2017-Nov-09 03:01N 29°32' W 090°48'2 3.1
2017-Nov-09 02:30N 29°32' W 090°46'2 3.1
2017-Nov-09 02:00N 29°34' W 090°45'1 2.8
2017-Nov-09 01:31N 29°34' W 090°43'0 0.7
2017-Nov-09 01:00N 29°34' W 090°43'0 0.0
2017-Nov-09 00:30N 29°34' W 090°43'0 0.0
2017-Nov-09 00:01N 29°34' W 090°43'0 0.1
2017-Nov-08 23:31N 29°34' W 090°43'0 0.0
2017-Nov-08 23:00N 29°34' W 090°43'0 0.0
2017-Nov-08 22:30N 29°34' W 090°43'0 0.0
2017-Nov-08 22:00N 29°34' W 090°43'0 0.0
2017-Nov-08 21:30N 29°34' W 090°43'0 0.0
2017-Nov-08 21:00N 29°34' W 090°43'0 0.3
2017-Nov-08 20:31N 29°34' W 090°43'1 3.0
2017-Nov-08 20:01N 29°36' W 090°43'1 2.5
2017-Nov-08 19:31N 29°37' W 090°42'2 3.3
2017-Nov-08 19:00N 29°36' W 090°40'1 2.9
2017-Nov-08 18:30N 29°35' W 090°38'2 3.3
2017-Nov-08 18:00N 29°35' W 090°37'2 3.2
2017-Nov-08 17:30N 29°34' W 090°35'2 3.3
2017-Nov-08 17:00N 29°34' W 090°33'2 3.2
2017-Nov-08 16:30N 29°34' W 090°31'2 3.4
2017-Nov-08 15:59N 29°34' W 090°29'2 3.4
2017-Nov-08 15:30N 29°33' W 090°27'1 1.7
2017-Nov-08 14:47N 29°33' W 090°26'0 0.1
2017-Nov-08 14:29N 29°33' W 090°26'  
Track history (hours):
 
Tides and Currents Weather Stations Pressure Air Temp Water Temp Dewpoint Dewpoint Depression Visibility Wind Speed Wind Dir Waves Ship Positions

L W Nelson

Owner: MARIGOLD TUGS INC, MOBILE, AL. More information available from US FCC via Universal Licensing System and Coast Guard Vessel Documentation Center.

Last reported at 2017-Nov-16 02:58 UTC. Time now 2017-Dec-12 19:43 UTC.
Position N 29°34' W 090°30'.
Warning: this ship's position is 26 days out of date.

Length 17 m; draft 2.8 m.

Type: Ship (hazmat cat B). MMSI: 367082430.

Date/timePositionNaut miles runAvg speedWind from/ knotsBaromVisibWave heightAir tempDewpointWater temp
2017-Nov-16 02:58N 29°34' W 090°30'2 4.4
2017-Nov-16 02:30N 29°34' W 090°32'3 4.9
2017-Nov-16 01:59N 29°35' W 090°35'2 4.7
2017-Nov-16 01:31N 29°35' W 090°38'2 4.6
2017-Nov-16 01:00N 29°36' W 090°40'2 4.4
2017-Nov-16 00:31N 29°37' W 090°42'2 4.3
2017-Nov-16 00:01N 29°35' W 090°43'2 4.2
2017-Nov-15 23:31N 29°34' W 090°45'2 4.5
2017-Nov-15 23:00N 29°32' W 090°47'3 5.2
2017-Nov-15 22:30N 29°32' W 090°50'59 4.1
2017-Nov-15 07:53N 29°51' W 091°55'2 4.8
2017-Nov-15 07:27N 29°50' W 091°57'2 5.2
2017-Nov-15 07:00N 29°50' W 091°60'3 5.1
2017-Nov-15 06:30N 29°49' W 092°03'3 5.3
2017-Nov-15 06:00N 29°48' W 092°05'3 5.2
2017-Nov-15 05:30N 29°47' W 092°08'2 4.9
2017-Nov-15 05:00N 29°47' W 092°11'1 2.5
2017-Nov-15 04:30N 29°47' W 092°12'1 1.1
2017-Nov-15 04:00N 29°47' W 092°13'1 1.3
2017-Nov-15 03:30N 29°48' W 092°14'0 0.4
2017-Nov-15 03:00N 29°48' W 092°14'1 2.6
2017-Nov-15 02:30N 29°48' W 092°15'2 4.7
2017-Nov-15 02:00N 29°49' W 092°18'2 3.8
2017-Nov-15 01:30N 29°50' W 092°19'3 4.3
2017-Nov-15 00:52N 29°52' W 092°22'0 0.6
2017-Nov-15 00:30N 29°52' W 092°22'2 3.3
2017-Nov-14 23:59N 29°53' W 092°24'3 5.0
2017-Nov-14 23:26N 29°54' W 092°27'33 4.7
2017-Nov-14 16:28N 29°56' W 093°05'2 4.7
2017-Nov-14 16:00N 29°56' W 093°07'2 4.6
2017-Nov-14 15:30N 29°56' W 093°10'0 0.9
2017-Nov-14 15:00N 29°57' W 093°10'2 3.9
2017-Nov-14 14:30N 29°58' W 093°12'2 4.6
2017-Nov-14 13:59N 29°60' W 093°13'2 4.5
2017-Nov-14 13:31N 30°02' W 093°15'2 4.3
2017-Nov-14 13:00N 30°04' W 093°16'2 4.4
2017-Nov-14 12:30N 30°05' W 093°18'91 2.6
2017-Nov-13 02:01N 29°39' W 094°58'3 5.2
2017-Nov-13 01:30N 29°42' W 094°59'3 4.6
2017-Nov-13 00:50N 29°44' W 095°02'2 4.8
2017-Nov-13 00:28N 29°45' W 095°04'3 2.0
2017-Nov-12 23:09N 29°46' W 095°06'0 0.4
2017-Nov-12 22:49N 29°46' W 095°06'0 0.0
2017-Nov-12 22:25N 29°46' W 095°06'0 0.1
2017-Nov-12 18:52N 29°46' W 095°06'1 3.3
2017-Nov-12 18:26N 29°46' W 095°04'2 4.0
2017-Nov-12 18:00N 29°44' W 095°03'2 3.4
2017-Nov-12 17:25N 29°43' W 095°01'1 3.4
2017-Nov-12 17:00N 29°42' W 094°60'2 3.7
2017-Nov-12 16:31N 29°41' W 094°59'2 4.2
2017-Nov-12 16:01N 29°39' W 094°58'2 4.0
2017-Nov-12 15:31N 29°37' W 094°57'2 3.9
2017-Nov-12 15:00N 29°35' W 094°56'2 3.6
2017-Nov-12 14:30N 29°34' W 094°55'2 3.7
2017-Nov-12 14:01N 29°32' W 094°54'2 3.6
2017-Nov-12 13:29N 29°30' W 094°52'21 2.4
2017-Nov-12 04:52N 29°33' W 094°28'112 2.8
2017-Nov-10 13:42N 29°51' W 092°22'1 3.2
2017-Nov-10 13:30N 29°51' W 092°21'1 2.7
2017-Nov-10 13:00N 29°50' W 092°20'1 2.5
2017-Nov-10 12:30N 29°50' W 092°18'2 3.4
2017-Nov-10 12:00N 29°49' W 092°17'2 3.4
2017-Nov-10 11:30N 29°48' W 092°15'2 3.0
2017-Nov-10 11:00N 29°48' W 092°14'1 2.2
2017-Nov-10 10:30N 29°47' W 092°12'0 0.6
2017-Nov-10 10:00N 29°47' W 092°12'1 1.1
2017-Nov-10 09:30N 29°47' W 092°11'0 0.0
2017-Nov-10 09:00N 29°47' W 092°11'0 0.0
2017-Nov-10 08:30N 29°47' W 092°11'0 0.1
2017-Nov-10 08:00N 29°47' W 092°11'0 0.2
2017-Nov-10 07:30N 29°47' W 092°11'0 0.3
2017-Nov-10 07:00N 29°47' W 092°11'0 0.0
2017-Nov-10 06:30N 29°47' W 092°11'0 0.0
2017-Nov-10 06:00N 29°47' W 092°11'0 0.0
2017-Nov-10 05:30N 29°47' W 092°11'0 0.2
2017-Nov-10 05:00N 29°47' W 092°11'0 0.0
2017-Nov-10 04:30N 29°47' W 092°11'1 1.4
2017-Nov-10 04:00N 29°47' W 092°10'1 2.9
2017-Nov-10 03:30N 29°47' W 092°09'1 2.7
2017-Nov-10 03:00N 29°47' W 092°07'1 2.5
2017-Nov-10 02:30N 29°48' W 092°06'1 2.5
2017-Nov-10 02:00N 29°48' W 092°05'1 2.5
2017-Nov-10 01:30N 29°49' W 092°03'1 2.3
2017-Nov-10 01:00N 29°49' W 092°02'1 2.6
2017-Nov-10 00:30N 29°50' W 092°01'1 2.7
2017-Nov-10 00:00N 29°50' W 091°59'1 2.6
2017-Nov-09 23:30N 29°50' W 091°58'61 3.1
2017-Nov-09 03:50N 29°32' W 090°51'1 3.4
2017-Nov-09 03:31N 29°32' W 090°49'2 3.3
2017-Nov-09 03:01N 29°32' W 090°48'2 3.1
2017-Nov-09 02:30N 29°32' W 090°46'2 3.1
2017-Nov-09 02:00N 29°34' W 090°45'1 2.8
2017-Nov-09 01:31N 29°34' W 090°43'0 0.7
2017-Nov-09 01:00N 29°34' W 090°43'0 0.0
2017-Nov-09 00:30N 29°34' W 090°43'0 0.0
2017-Nov-09 00:01N 29°34' W 090°43'0 0.1
2017-Nov-08 23:31N 29°34' W 090°43'0 0.0
2017-Nov-08 23:00N 29°34' W 090°43'0 0.0
2017-Nov-08 22:30N 29°34' W 090°43'0 0.0
2017-Nov-08 22:00N 29°34' W 090°43'0 0.0
2017-Nov-08 21:30N 29°34' W 090°43'0 0.0
2017-Nov-08 21:00N 29°34' W 090°43'0 0.3
2017-Nov-08 20:31N 29°34' W 090°43'1 3.0
2017-Nov-08 20:01N 29°36' W 090°43'1 2.5
2017-Nov-08 19:31N 29°37' W 090°42'2 3.3
2017-Nov-08 19:00N 29°36' W 090°40'1 2.9
2017-Nov-08 18:30N 29°35' W 090°38'2 3.3
2017-Nov-08 18:00N 29°35' W 090°37'2 3.2
2017-Nov-08 17:30N 29°34' W 090°35'2 3.3
2017-Nov-08 17:00N 29°34' W 090°33'2 3.2
2017-Nov-08 16:30N 29°34' W 090°31'2 3.4
2017-Nov-08 15:59N 29°34' W 090°29'2 3.4
2017-Nov-08 15:30N 29°33' W 090°27'1 1.7
2017-Nov-08 14:47N 29°33' W 090°26'0 0.1
2017-Nov-08 14:29N 29°33' W 090°26'  

Dump ship's entire track history